sensor_id;sensor_type;location;lat;lon;timestamp;P1;durP1;ratioP1;P2;durP2;ratioP2
13991;SDS011;7070;53.586;9.692;2022-08-07T00:00:44;0.50;;;0.50;;
13991;SDS011;7070;53.586;9.692;2022-08-07T00:03:11;0.50;;;0.50;;
13991;SDS011;7070;53.586;9.692;2022-08-07T00:05:38;0.50;;;0.50;;
13991;SDS011;7070;53.586;9.692;2022-08-07T00:08:05;0.50;;;0.50;;
13991;SDS011;7070;53.586;9.692;2022-08-07T00:10:32;0.40;;;0.40;;
13991;SDS011;7070;53.586;9.692;2022-08-07T00:12:59;0.50;;;0.50;;
13991;SDS011;7070;53.586;9.692;2022-08-07T00:15:29;0.50;;;0.50;;
13991;SDS011;7070;53.586;9.692;2022-08-07T00:18:00;0.50;;;0.50;;
13991;SDS011;7070;53.586;9.692;2022-08-07T00:20:26;0.47;;;0.47;;
13991;SDS011;7070;53.586;9.692;2022-08-07T00:22:53;0.50;;;0.50;;
13991;SDS011;7070;53.586;9.692;2022-08-07T00:25:20;0.50;;;0.50;;
13991;SDS011;7070;53.586;9.692;2022-08-07T00:27:48;0.50;;;0.50;;
13991;SDS011;7070;53.586;9.692;2022-08-07T00:30:15;0.50;;;0.50;;
13991;SDS011;7070;53.586;9.692;2022-08-07T00:32:44;0.50;;;0.50;;
13991;SDS011;7070;53.586;9.692;2022-08-07T00:35:12;0.40;;;0.40;;
13991;SDS011;7070;53.586;9.692;2022-08-07T00:37:39;0.50;;;0.50;;
13991;SDS011;7070;53.586;9.692;2022-08-07T00:40:06;0.40;;;0.40;;
13991;SDS011;7070;53.586;9.692;2022-08-07T00:42:34;0.50;;;0.50;;
13991;SDS011;7070;53.586;9.692;2022-08-07T00:45:01;0.50;;;0.50;;
13991;SDS011;7070;53.586;9.692;2022-08-07T00:47:28;0.50;;;0.50;;
13991;SDS011;7070;53.586;9.692;2022-08-07T00:49:57;0.50;;;0.50;;
13991;SDS011;7070;53.586;9.692;2022-08-07T00:52:24;0.50;;;0.50;;
13991;SDS011;7070;53.586;9.692;2022-08-07T00:54:51;0.50;;;0.50;;
13991;SDS011;7070;53.586;9.692;2022-08-07T00:57:18;0.50;;;0.50;;
13991;SDS011;7070;53.586;9.692;2022-08-07T00:59:46;0.50;;;0.50;;
13991;SDS011;7070;53.586;9.692;2022-08-07T01:02:12;0.50;;;0.50;;
13991;SDS011;7070;53.586;9.692;2022-08-07T01:04:39;0.40;;;0.40;;
13991;SDS011;7070;53.586;9.692;2022-08-07T01:07:08;0.50;;;0.50;;
13991;SDS011;7070;53.586;9.692;2022-08-07T01:09:35;0.50;;;0.50;;
13991;SDS011;7070;53.586;9.692;2022-08-07T01:12:02;0.50;;;0.50;;
13991;SDS011;7070;53.586;9.692;2022-08-07T01:14:30;0.60;;;0.60;;
13991;SDS011;7070;53.586;9.692;2022-08-07T01:16:57;0.50;;;0.50;;
13991;SDS011;7070;53.586;9.692;2022-08-07T01:19:25;0.50;;;0.50;;
13991;SDS011;7070;53.586;9.692;2022-08-07T01:21:55;0.50;;;0.50;;
13991;SDS011;7070;53.586;9.692;2022-08-07T01:24:23;0.50;;;0.50;;
13991;SDS011;7070;53.586;9.692;2022-08-07T01:26:50;0.40;;;0.40;;
13991;SDS011;7070;53.586;9.692;2022-08-07T01:29:18;0.50;;;0.50;;
13991;SDS011;7070;53.586;9.692;2022-08-07T01:31:47;0.50;;;0.50;;
13991;SDS011;7070;53.586;9.692;2022-08-07T01:34:15;0.60;;;0.60;;
13991;SDS011;7070;53.586;9.692;2022-08-07T01:36:42;0.50;;;0.50;;
13991;SDS011;7070;53.586;9.692;2022-08-07T01:39:11;0.50;;;0.50;;
13991;SDS011;7070;53.586;9.692;2022-08-07T01:41:38;0.50;;;0.50;;
13991;SDS011;7070;53.586;9.692;2022-08-07T01:44:08;0.43;;;0.43;;
13991;SDS011;7070;53.586;9.692;2022-08-07T01:46:37;0.50;;;0.50;;
13991;SDS011;7070;53.586;9.692;2022-08-07T01:49:05;0.50;;;0.50;;
13991;SDS011;7070;53.586;9.692;2022-08-07T01:51:32;0.50;;;0.50;;
13991;SDS011;7070;53.586;9.692;2022-08-07T01:54:01;0.50;;;0.50;;
13991;SDS011;7070;53.586;9.692;2022-08-07T01:56:33;0.40;;;0.40;;
13991;SDS011;7070;53.586;9.692;2022-08-07T01:59:07;0.50;;;0.50;;
13991;SDS011;7070;53.586;9.692;2022-08-07T02:01:41;0.50;;;0.50;;
13991;SDS011;7070;53.586;9.692;2022-08-07T02:04:15;0.50;;;0.50;;
13991;SDS011;7070;53.586;9.692;2022-08-07T02:06:43;0.40;;;0.40;;
13991;SDS011;7070;53.586;9.692;2022-08-07T02:09:11;0.50;;;0.50;;
13991;SDS011;7070;53.586;9.692;2022-08-07T02:11:44;0.50;;;0.50;;
13991;SDS011;7070;53.586;9.692;2022-08-07T02:14:13;0.50;;;0.50;;
13991;SDS011;7070;53.586;9.692;2022-08-07T02:16:42;0.50;;;0.50;;
13991;SDS011;7070;53.586;9.692;2022-08-07T02:19:11;0.43;;;0.43;;
13991;SDS011;7070;53.586;9.692;2022-08-07T02:21:39;0.40;;;0.40;;
13991;SDS011;7070;53.586;9.692;2022-08-07T02:24:08;0.50;;;0.50;;
13991;SDS011;7070;53.586;9.692;2022-08-07T02:26:36;0.50;;;0.50;;
13991;SDS011;7070;53.586;9.692;2022-08-07T02:29:06;0.50;;;0.50;;
13991;SDS011;7070;53.586;9.692;2022-08-07T02:31:34;0.50;;;0.50;;
13991;SDS011;7070;53.586;9.692;2022-08-07T02:34:03;0.50;;;0.50;;
13991;SDS011;7070;53.586;9.692;2022-08-07T02:36:31;0.50;;;0.50;;
13991;SDS011;7070;53.586;9.692;2022-08-07T02:38:59;0.50;;;0.50;;
13991;SDS011;7070;53.586;9.692;2022-08-07T02:41:29;0.50;;;0.50;;
13991;SDS011;7070;53.586;9.692;2022-08-07T02:43:56;0.50;;;0.50;;
13991;SDS011;7070;53.586;9.692;2022-08-07T02:46:27;0.50;;;0.50;;
13991;SDS011;7070;53.586;9.692;2022-08-07T02:48:56;0.50;;;0.50;;
13991;SDS011;7070;53.586;9.692;2022-08-07T02:51:23;0.50;;;0.50;;
13991;SDS011;7070;53.586;9.692;2022-08-07T02:53:52;0.50;;;0.50;;
13991;SDS011;7070;53.586;9.692;2022-08-07T02:56:21;0.50;;;0.50;;
13991;SDS011;7070;53.586;9.692;2022-08-07T02:58:51;0.40;;;0.40;;
13991;SDS011;7070;53.586;9.692;2022-08-07T03:01:19;0.50;;;0.50;;
13991;SDS011;7070;53.586;9.692;2022-08-07T03:03:50;0.50;;;0.50;;
13991;SDS011;7070;53.586;9.692;2022-08-07T03:06:19;0.40;;;0.40;;
13991;SDS011;7070;53.586;9.692;2022-08-07T03:08:46;0.50;;;0.50;;
13991;SDS011;7070;53.586;9.692;2022-08-07T03:11:13;0.43;;;0.43;;
13991;SDS011;7070;53.586;9.692;2022-08-07T03:13:41;0.40;;;0.40;;
13991;SDS011;7070;53.586;9.692;2022-08-07T03:16:09;0.50;;;0.50;;
13991;SDS011;7070;53.586;9.692;2022-08-07T03:18:36;0.60;;;0.60;;
13991;SDS011;7070;53.586;9.692;2022-08-07T03:21:05;0.50;;;0.50;;
13991;SDS011;7070;53.586;9.692;2022-08-07T03:23:32;0.50;;;0.50;;
13991;SDS011;7070;53.586;9.692;2022-08-07T03:26:00;0.40;;;0.40;;
13991;SDS011;7070;53.586;9.692;2022-08-07T03:28:29;0.50;;;0.50;;
13991;SDS011;7070;53.586;9.692;2022-08-07T03:30:56;0.47;;;0.47;;
13991;SDS011;7070;53.586;9.692;2022-08-07T03:33:38;0.50;;;0.50;;
13991;SDS011;7070;53.586;9.692;2022-08-07T03:36:08;0.47;;;0.47;;
13991;SDS011;7070;53.586;9.692;2022-08-07T03:38:37;0.50;;;0.50;;
13991;SDS011;7070;53.586;9.692;2022-08-07T03:41:06;0.50;;;0.50;;
13991;SDS011;7070;53.586;9.692;2022-08-07T03:43:34;0.43;;;0.43;;
13991;SDS011;7070;53.586;9.692;2022-08-07T03:46:02;0.40;;;0.40;;
13991;SDS011;7070;53.586;9.692;2022-08-07T03:48:30;0.50;;;0.50;;
13991;SDS011;7070;53.586;9.692;2022-08-07T03:50:58;0.70;;;0.70;;
13991;SDS011;7070;53.586;9.692;2022-08-07T03:53:27;0.57;;;0.57;;
13991;SDS011;7070;53.586;9.692;2022-08-07T03:55:54;0.50;;;0.50;;
13991;SDS011;7070;53.586;9.692;2022-08-07T03:58:24;0.50;;;0.50;;
13991;SDS011;7070;53.586;9.692;2022-08-07T04:00:52;0.50;;;0.50;;
13991;SDS011;7070;53.586;9.692;2022-08-07T04:03:21;0.50;;;0.50;;
13991;SDS011;7070;53.586;9.692;2022-08-07T04:05:48;0.50;;;0.50;;
13991;SDS011;7070;53.586;9.692;2022-08-07T04:08:15;0.50;;;0.50;;
13991;SDS011;7070;53.586;9.692;2022-08-07T04:10:44;0.50;;;0.50;;
13991;SDS011;7070;53.586;9.692;2022-08-07T04:13:12;0.50;;;0.50;;
13991;SDS011;7070;53.586;9.692;2022-08-07T04:15:40;0.50;;;0.50;;
13991;SDS011;7070;53.586;9.692;2022-08-07T04:18:09;0.60;;;0.60;;
13991;SDS011;7070;53.586;9.692;2022-08-07T04:20:37;0.60;;;0.60;;
13991;SDS011;7070;53.586;9.692;2022-08-07T04:23:04;0.60;;;0.60;;
13991;SDS011;7070;53.586;9.692;2022-08-07T04:25:31;0.50;;;0.50;;
13991;SDS011;7070;53.586;9.692;2022-08-07T04:28:00;0.50;;;0.50;;
13991;SDS011;7070;53.586;9.692;2022-08-07T04:30:27;0.50;;;0.50;;
13991;SDS011;7070;53.586;9.692;2022-08-07T04:32:54;0.60;;;0.60;;
13991;SDS011;7070;53.586;9.692;2022-08-07T04:35:22;0.50;;;0.50;;
13991;SDS011;7070;53.586;9.692;2022-08-07T04:37:48;0.53;;;0.53;;
13991;SDS011;7070;53.586;9.692;2022-08-07T04:40:16;0.50;;;0.50;;
13991;SDS011;7070;53.586;9.692;2022-08-07T04:42:47;0.50;;;0.50;;
13991;SDS011;7070;53.586;9.692;2022-08-07T04:45:15;0.50;;;0.50;;
13991;SDS011;7070;53.586;9.692;2022-08-07T04:47:46;0.53;;;0.53;;
13991;SDS011;7070;53.586;9.692;2022-08-07T04:50:22;0.50;;;0.50;;
13991;SDS011;7070;53.586;9.692;2022-08-07T04:52:59;0.50;;;0.50;;
13991;SDS011;7070;53.586;9.692;2022-08-07T04:55:34;0.60;;;0.60;;
13991;SDS011;7070;53.586;9.692;2022-08-07T04:58:08;0.50;;;0.50;;
13991;SDS011;7070;53.586;9.692;2022-08-07T05:00:45;0.40;;;0.40;;
13991;SDS011;7070;53.586;9.692;2022-08-07T05:03:18;0.50;;;0.50;;
13991;SDS011;7070;53.586;9.692;2022-08-07T05:05:50;0.50;;;0.50;;
13991;SDS011;7070;53.586;9.692;2022-08-07T05:08:25;0.50;;;0.50;;
13991;SDS011;7070;53.586;9.692;2022-08-07T05:10:57;0.50;;;0.50;;
13991;SDS011;7070;53.586;9.692;2022-08-07T05:13:30;0.50;;;0.50;;
13991;SDS011;7070;53.586;9.692;2022-08-07T05:16:05;0.40;;;0.40;;
13991;SDS011;7070;53.586;9.692;2022-08-07T05:18:34;0.40;;;0.40;;
13991;SDS011;7070;53.586;9.692;2022-08-07T05:21:07;0.50;;;0.50;;
13991;SDS011;7070;53.586;9.692;2022-08-07T05:23:44;0.50;;;0.50;;
13991;SDS011;7070;53.586;9.692;2022-08-07T05:26:15;0.50;;;0.50;;
13991;SDS011;7070;53.586;9.692;2022-08-07T05:28:44;0.40;;;0.40;;
13991;SDS011;7070;53.586;9.692;2022-08-07T05:31:15;0.40;;;0.40;;
13991;SDS011;7070;53.586;9.692;2022-08-07T05:33:44;0.40;;;0.40;;
13991;SDS011;7070;53.586;9.692;2022-08-07T05:36:11;0.50;;;0.50;;
13991;SDS011;7070;53.586;9.692;2022-08-07T05:38:39;0.40;;;0.40;;
13991;SDS011;7070;53.586;9.692;2022-08-07T05:41:08;0.50;;;0.50;;
13991;SDS011;7070;53.586;9.692;2022-08-07T05:43:35;0.40;;;0.40;;
13991;SDS011;7070;53.586;9.692;2022-08-07T05:46:04;0.50;;;0.50;;
13991;SDS011;7070;53.586;9.692;2022-08-07T05:48:33;0.40;;;0.40;;
13991;SDS011;7070;53.586;9.692;2022-08-07T05:51:02;0.30;;;0.30;;
13991;SDS011;7070;53.586;9.692;2022-08-07T05:53:33;0.33;;;0.33;;
13991;SDS011;7070;53.586;9.692;2022-08-07T05:56:00;0.40;;;0.40;;
13991;SDS011;7070;53.586;9.692;2022-08-07T05:58:31;0.40;;;0.40;;
13991;SDS011;7070;53.586;9.692;2022-08-07T06:01:00;0.40;;;0.40;;
13991;SDS011;7070;53.586;9.692;2022-08-07T06:03:28;0.40;;;0.40;;
13991;SDS011;7070;53.586;9.692;2022-08-07T06:06:01;0.40;;;0.40;;
13991;SDS011;7070;53.586;9.692;2022-08-07T06:08:28;0.40;;;0.40;;
13991;SDS011;7070;53.586;9.692;2022-08-07T06:10:56;0.30;;;0.30;;
13991;SDS011;7070;53.586;9.692;2022-08-07T06:13:24;0.30;;;0.30;;
13991;SDS011;7070;53.586;9.692;2022-08-07T06:15:51;0.40;;;0.40;;
13991;SDS011;7070;53.586;9.692;2022-08-07T06:18:20;0.40;;;0.40;;
13991;SDS011;7070;53.586;9.692;2022-08-07T06:20:49;0.40;;;0.40;;
13991;SDS011;7070;53.586;9.692;2022-08-07T06:23:19;0.30;;;0.30;;
13991;SDS011;7070;53.586;9.692;2022-08-07T06:25:46;0.40;;;0.40;;
13991;SDS011;7070;53.586;9.692;2022-08-07T06:28:15;0.40;;;0.40;;
13991;SDS011;7070;53.586;9.692;2022-08-07T06:30:42;0.30;;;0.30;;
13991;SDS011;7070;53.586;9.692;2022-08-07T06:33:09;0.40;;;0.40;;
13991;SDS011;7070;53.586;9.692;2022-08-07T06:35:37;0.30;;;0.30;;
13991;SDS011;7070;53.586;9.692;2022-08-07T06:38:04;0.40;;;0.40;;
13991;SDS011;7070;53.586;9.692;2022-08-07T06:40:34;0.30;;;0.30;;
13991;SDS011;7070;53.586;9.692;2022-08-07T06:43:06;0.30;;;0.30;;
13991;SDS011;7070;53.586;9.692;2022-08-07T06:45:35;0.30;;;0.30;;
13991;SDS011;7070;53.586;9.692;2022-08-07T06:48:02;0.30;;;0.30;;
13991;SDS011;7070;53.586;9.692;2022-08-07T06:50:31;0.40;;;0.40;;
13991;SDS011;7070;53.586;9.692;2022-08-07T06:52:59;0.33;;;0.33;;
13991;SDS011;7070;53.586;9.692;2022-08-07T06:55:28;0.40;;;0.40;;
13991;SDS011;7070;53.586;9.692;2022-08-07T06:57:58;0.30;;;0.30;;
13991;SDS011;7070;53.586;9.692;2022-08-07T07:00:27;0.30;;;0.30;;
13991;SDS011;7070;53.586;9.692;2022-08-07T07:02:59;0.30;;;0.30;;
13991;SDS011;7070;53.586;9.692;2022-08-07T07:05:27;0.27;;;0.27;;
13991;SDS011;7070;53.586;9.692;2022-08-07T07:07:55;0.30;;;0.30;;
13991;SDS011;7070;53.586;9.692;2022-08-07T07:10:26;0.30;;;0.30;;
13991;SDS011;7070;53.586;9.692;2022-08-07T07:12:54;0.30;;;0.30;;
13991;SDS011;7070;53.586;9.692;2022-08-07T07:15:26;0.30;;;0.30;;
13991;SDS011;7070;53.586;9.692;2022-08-07T07:18:00;0.30;;;0.30;;
13991;SDS011;7070;53.586;9.692;2022-08-07T07:20:34;0.30;;;0.30;;
13991;SDS011;7070;53.586;9.692;2022-08-07T07:23:11;0.30;;;0.30;;
13991;SDS011;7070;53.586;9.692;2022-08-07T07:25:42;0.27;;;0.27;;
13991;SDS011;7070;53.586;9.692;2022-08-07T07:28:14;0.30;;;0.30;;
13991;SDS011;7070;53.586;9.692;2022-08-07T07:30:47;0.40;;;0.40;;
13991;SDS011;7070;53.586;9.692;2022-08-07T07:33:18;0.40;;;0.40;;
13991;SDS011;7070;53.586;9.692;2022-08-07T07:35:47;0.30;;;0.30;;
13991;SDS011;7070;53.586;9.692;2022-08-07T07:38:19;0.30;;;0.30;;
13991;SDS011;7070;53.586;9.692;2022-08-07T07:40:48;0.40;;;0.40;;
13991;SDS011;7070;53.586;9.692;2022-08-07T07:43:18;0.30;;;0.30;;
13991;SDS011;7070;53.586;9.692;2022-08-07T07:45:48;0.30;;;0.30;;
13991;SDS011;7070;53.586;9.692;2022-08-07T07:48:20;0.30;;;0.30;;
13991;SDS011;7070;53.586;9.692;2022-08-07T07:50:49;0.30;;;0.30;;
13991;SDS011;7070;53.586;9.692;2022-08-07T07:53:19;0.37;;;0.37;;
13991;SDS011;7070;53.586;9.692;2022-08-07T07:55:48;0.30;;;0.30;;
13991;SDS011;7070;53.586;9.692;2022-08-07T07:58:17;0.30;;;0.30;;
13991;SDS011;7070;53.586;9.692;2022-08-07T08:00:46;0.30;;;0.30;;
13991;SDS011;7070;53.586;9.692;2022-08-07T08:03:18;0.30;;;0.30;;
13991;SDS011;7070;53.586;9.692;2022-08-07T08:05:48;0.30;;;0.30;;
13991;SDS011;7070;53.586;9.692;2022-08-07T08:08:17;0.30;;;0.30;;
13991;SDS011;7070;53.586;9.692;2022-08-07T08:10:45;0.30;;;0.30;;
13991;SDS011;7070;53.586;9.692;2022-08-07T08:13:13;0.33;;;0.33;;
13991;SDS011;7070;53.586;9.692;2022-08-07T08:15:41;0.30;;;0.30;;
13991;SDS011;7070;53.586;9.692;2022-08-07T08:18:12;0.30;;;0.30;;
13991;SDS011;7070;53.586;9.692;2022-08-07T08:20:41;0.30;;;0.30;;
13991;SDS011;7070;53.586;9.692;2022-08-07T08:23:10;0.20;;;0.20;;
13991;SDS011;7070;53.586;9.692;2022-08-07T08:25:56;0.30;;;0.30;;
13991;SDS011;7070;53.586;9.692;2022-08-07T08:28:44;0.30;;;0.30;;
13991;SDS011;7070;53.586;9.692;2022-08-07T08:31:13;0.37;;;0.37;;
13991;SDS011;7070;53.586;9.692;2022-08-07T08:33:45;0.30;;;0.30;;
13991;SDS011;7070;53.586;9.692;2022-08-07T08:36:15;0.30;;;0.30;;
13991;SDS011;7070;53.586;9.692;2022-08-07T08:38:44;0.40;;;0.40;;
13991;SDS011;7070;53.586;9.692;2022-08-07T08:41:15;0.20;;;0.20;;
13991;SDS011;7070;53.586;9.692;2022-08-07T08:43:46;0.30;;;0.30;;
13991;SDS011;7070;53.586;9.692;2022-08-07T08:46:20;0.30;;;0.30;;
13991;SDS011;7070;53.586;9.692;2022-08-07T08:48:56;0.33;;;0.33;;
13991;SDS011;7070;53.586;9.692;2022-08-07T08:51:30;0.30;;;0.30;;
13991;SDS011;7070;53.586;9.692;2022-08-07T08:54:01;0.33;;;0.33;;
13991;SDS011;7070;53.586;9.692;2022-08-07T08:56:35;0.30;;;0.30;;
13991;SDS011;7070;53.586;9.692;2022-08-07T08:59:06;0.30;;;0.30;;
13991;SDS011;7070;53.586;9.692;2022-08-07T09:01:41;0.37;;;0.37;;
13991;SDS011;7070;53.586;9.692;2022-08-07T09:04:15;0.33;;;0.33;;
13991;SDS011;7070;53.586;9.692;2022-08-07T09:06:51;0.30;;;0.30;;
13991;SDS011;7070;53.586;9.692;2022-08-07T09:09:30;0.30;;;0.30;;
13991;SDS011;7070;53.586;9.692;2022-08-07T09:12:11;0.30;;;0.30;;
13991;SDS011;7070;53.586;9.692;2022-08-07T09:14:47;0.30;;;0.30;;
13991;SDS011;7070;53.586;9.692;2022-08-07T09:17:25;0.30;;;0.30;;
13991;SDS011;7070;53.586;9.692;2022-08-07T09:20:04;0.30;;;0.30;;
13991;SDS011;7070;53.586;9.692;2022-08-07T09:22:43;0.30;;;0.30;;
13991;SDS011;7070;53.586;9.692;2022-08-07T09:25:22;0.30;;;0.30;;
13991;SDS011;7070;53.586;9.692;2022-08-07T09:27:54;0.30;;;0.30;;
13991;SDS011;7070;53.586;9.692;2022-08-07T09:30:28;0.20;;;0.20;;
13991;SDS011;7070;53.586;9.692;2022-08-07T09:33:22;0.30;;;0.30;;
13991;SDS011;7070;53.586;9.692;2022-08-07T09:36:05;0.20;;;0.20;;
13991;SDS011;7070;53.586;9.692;2022-08-07T09:38:38;0.30;;;0.30;;
13991;SDS011;7070;53.586;9.692;2022-08-07T09:41:14;0.30;;;0.30;;
13991;SDS011;7070;53.586;9.692;2022-08-07T09:43:52;0.30;;;0.30;;
13991;SDS011;7070;53.586;9.692;2022-08-07T09:46:29;0.30;;;0.30;;
13991;SDS011;7070;53.586;9.692;2022-08-07T09:49:05;0.30;;;0.30;;
13991;SDS011;7070;53.586;9.692;2022-08-07T09:51:49;0.30;;;0.30;;
13991;SDS011;7070;53.586;9.692;2022-08-07T09:54:25;0.30;;;0.30;;
13991;SDS011;7070;53.586;9.692;2022-08-07T09:57:09;0.30;;;0.30;;
13991;SDS011;7070;53.586;9.692;2022-08-07T10:00:04;0.30;;;0.30;;
13991;SDS011;7070;53.586;9.692;2022-08-07T10:02:38;0.30;;;0.30;;
13991;SDS011;7070;53.586;9.692;2022-08-07T10:05:24;0.30;;;0.30;;
13991;SDS011;7070;53.586;9.692;2022-08-07T10:08:08;0.30;;;0.30;;
13991;SDS011;7070;53.586;9.692;2022-08-07T10:10:50;0.30;;;0.30;;
13991;SDS011;7070;53.586;9.692;2022-08-07T10:13:43;0.30;;;0.30;;
13991;SDS011;7070;53.586;9.692;2022-08-07T10:16:28;0.27;;;0.27;;
13991;SDS011;7070;53.586;9.692;2022-08-07T10:19:18;0.20;;;0.20;;
13991;SDS011;7070;53.586;9.692;2022-08-07T10:22:00;0.30;;;0.30;;
13991;SDS011;7070;53.586;9.692;2022-08-07T10:24:47;0.30;;;0.30;;
13991;SDS011;7070;53.586;9.692;2022-08-07T10:27:30;0.30;;;0.30;;
13991;SDS011;7070;53.586;9.692;2022-08-07T10:30:12;0.30;;;0.30;;
13991;SDS011;7070;53.586;9.692;2022-08-07T10:35:51;0.33;;;0.33;;
13991;SDS011;7070;53.586;9.692;2022-08-07T10:38:34;0.30;;;0.30;;
13991;SDS011;7070;53.586;9.692;2022-08-07T10:41:10;0.20;;;0.20;;
13991;SDS011;7070;53.586;9.692;2022-08-07T10:43:43;0.30;;;0.30;;
13991;SDS011;7070;53.586;9.692;2022-08-07T10:46:18;0.30;;;0.30;;
13991;SDS011;7070;53.586;9.692;2022-08-07T10:48:48;0.30;;;0.30;;
13991;SDS011;7070;53.586;9.692;2022-08-07T10:51:27;0.40;;;0.40;;
13991;SDS011;7070;53.586;9.692;2022-08-07T10:54:05;0.30;;;0.30;;
13991;SDS011;7070;53.586;9.692;2022-08-07T10:56:42;0.30;;;0.30;;
13991;SDS011;7070;53.586;9.692;2022-08-07T10:59:19;0.30;;;0.30;;
13991;SDS011;7070;53.586;9.692;2022-08-07T11:01:59;0.30;;;0.30;;
13991;SDS011;7070;53.586;9.692;2022-08-07T11:04:34;0.27;;;0.27;;
13991;SDS011;7070;53.586;9.692;2022-08-07T11:07:17;0.20;;;0.20;;
13991;SDS011;7070;53.586;9.692;2022-08-07T11:09:51;0.30;;;0.30;;
13991;SDS011;7070;53.586;9.692;2022-08-07T11:12:25;0.30;;;0.30;;
13991;SDS011;7070;53.586;9.692;2022-08-07T11:14:59;0.30;;;0.30;;
13991;SDS011;7070;53.586;9.692;2022-08-07T11:17:29;0.20;;;0.20;;
13991;SDS011;7070;53.586;9.692;2022-08-07T11:20:05;0.20;;;0.20;;
13991;SDS011;7070;53.586;9.692;2022-08-07T11:22:37;0.27;;;0.27;;
13991;SDS011;7070;53.586;9.692;2022-08-07T11:25:10;0.27;;;0.27;;
13991;SDS011;7070;53.586;9.692;2022-08-07T11:27:44;0.30;;;0.30;;
13991;SDS011;7070;53.586;9.692;2022-08-07T11:30:18;0.20;;;0.20;;
13991;SDS011;7070;53.586;9.692;2022-08-07T11:32:50;0.20;;;0.20;;
13991;SDS011;7070;53.586;9.692;2022-08-07T11:35:25;0.20;;;0.20;;
13991;SDS011;7070;53.586;9.692;2022-08-07T11:37:58;0.20;;;0.20;;
13991;SDS011;7070;53.586;9.692;2022-08-07T11:40:37;0.20;;;0.20;;
13991;SDS011;7070;53.586;9.692;2022-08-07T11:43:14;0.27;;;0.27;;
13991;SDS011;7070;53.586;9.692;2022-08-07T11:45:49;0.20;;;0.20;;
13991;SDS011;7070;53.586;9.692;2022-08-07T11:48:40;0.20;;;0.20;;
13991;SDS011;7070;53.586;9.692;2022-08-07T11:51:32;0.27;;;0.27;;
13991;SDS011;7070;53.586;9.692;2022-08-07T11:54:13;0.20;;;0.20;;
13991;SDS011;7070;53.586;9.692;2022-08-07T11:56:52;0.20;;;0.20;;
13991;SDS011;7070;53.586;9.692;2022-08-07T11:59:40;0.30;;;0.30;;
13991;SDS011;7070;53.586;9.692;2022-08-07T12:02:26;0.30;;;0.30;;
13991;SDS011;7070;53.586;9.692;2022-08-07T12:05:10;0.30;;;0.30;;
13991;SDS011;7070;53.586;9.692;2022-08-07T12:07:44;0.20;;;0.20;;
13991;SDS011;7070;53.586;9.692;2022-08-07T12:10:18;0.30;;;0.30;;
13991;SDS011;7070;53.586;9.692;2022-08-07T12:12:52;0.20;;;0.20;;
13991;SDS011;7070;53.586;9.692;2022-08-07T12:15:26;0.20;;;0.20;;
13991;SDS011;7070;53.586;9.692;2022-08-07T12:17:59;0.30;;;0.30;;
13991;SDS011;7070;53.586;9.692;2022-08-07T12:20:32;0.30;;;0.30;;
13991;SDS011;7070;53.586;9.692;2022-08-07T12:23:08;0.20;;;0.20;;
13991;SDS011;7070;53.586;9.692;2022-08-07T12:25:45;0.30;;;0.30;;
13991;SDS011;7070;53.586;9.692;2022-08-07T12:28:25;0.20;;;0.20;;
13991;SDS011;7070;53.586;9.692;2022-08-07T12:30:58;0.30;;;0.30;;
13991;SDS011;7070;53.586;9.692;2022-08-07T12:33:28;0.30;;;0.30;;
13991;SDS011;7070;53.586;9.692;2022-08-07T12:35:57;0.20;;;0.20;;
13991;SDS011;7070;53.586;9.692;2022-08-07T12:38:26;0.20;;;0.20;;
13991;SDS011;7070;53.586;9.692;2022-08-07T12:40:55;0.20;;;0.20;;
13991;SDS011;7070;53.586;9.692;2022-08-07T12:43:26;0.20;;;0.20;;
13991;SDS011;7070;53.586;9.692;2022-08-07T12:46:01;0.20;;;0.20;;
13991;SDS011;7070;53.586;9.692;2022-08-07T12:48:38;0.17;;;0.17;;
13991;SDS011;7070;53.586;9.692;2022-08-07T12:51:14;0.20;;;0.20;;
13991;SDS011;7070;53.586;9.692;2022-08-07T12:53:44;0.20;;;0.20;;
13991;SDS011;7070;53.586;9.692;2022-08-07T12:56:18;0.30;;;0.30;;
13991;SDS011;7070;53.586;9.692;2022-08-07T12:58:52;0.23;;;0.23;;
13991;SDS011;7070;53.586;9.692;2022-08-07T13:01:25;0.20;;;0.20;;
13991;SDS011;7070;53.586;9.692;2022-08-07T13:04:07;0.20;;;0.20;;
13991;SDS011;7070;53.586;9.692;2022-08-07T13:06:51;0.20;;;0.20;;
13991;SDS011;7070;53.586;9.692;2022-08-07T13:09:37;0.20;;;0.20;;
13991;SDS011;7070;53.586;9.692;2022-08-07T13:12:18;0.20;;;0.20;;
13991;SDS011;7070;53.586;9.692;2022-08-07T13:14:57;0.10;;;0.10;;
13991;SDS011;7070;53.586;9.692;2022-08-07T13:17:32;0.20;;;0.20;;
13991;SDS011;7070;53.586;9.692;2022-08-07T13:20:05;0.20;;;0.20;;
13991;SDS011;7070;53.586;9.692;2022-08-07T13:22:38;0.20;;;0.20;;
13991;SDS011;7070;53.586;9.692;2022-08-07T13:25:16;0.20;;;0.20;;
13991;SDS011;7070;53.586;9.692;2022-08-07T13:27:52;0.23;;;0.23;;
13991;SDS011;7070;53.586;9.692;2022-08-07T13:30:21;0.27;;;0.27;;
13991;SDS011;7070;53.586;9.692;2022-08-07T13:32:54;0.20;;;0.20;;
13991;SDS011;7070;53.586;9.692;2022-08-07T13:35:30;0.30;;;0.30;;
13991;SDS011;7070;53.586;9.692;2022-08-07T13:38:03;0.20;;;0.20;;
13991;SDS011;7070;53.586;9.692;2022-08-07T13:40:37;0.20;;;0.20;;
13991;SDS011;7070;53.586;9.692;2022-08-07T13:43:12;0.20;;;0.20;;
13991;SDS011;7070;53.586;9.692;2022-08-07T13:45:41;0.20;;;0.20;;
13991;SDS011;7070;53.586;9.692;2022-08-07T13:48:12;0.30;;;0.30;;
13991;SDS011;7070;53.586;9.692;2022-08-07T13:50:40;0.23;;;0.23;;
13991;SDS011;7070;53.586;9.692;2022-08-07T13:53:08;0.30;;;0.30;;
13991;SDS011;7070;53.586;9.692;2022-08-07T13:55:42;0.20;;;0.20;;
13991;SDS011;7070;53.586;9.692;2022-08-07T13:58:10;0.20;;;0.20;;
13991;SDS011;7070;53.586;9.692;2022-08-07T14:01:07;0.20;;;0.20;;
13991;SDS011;7070;53.586;9.692;2022-08-07T14:03:38;0.20;;;0.20;;
13991;SDS011;7070;53.586;9.692;2022-08-07T14:06:07;0.20;;;0.20;;
13991;SDS011;7070;53.586;9.692;2022-08-07T14:08:35;0.20;;;0.20;;
13991;SDS011;7070;53.586;9.692;2022-08-07T14:11:08;0.20;;;0.20;;
13991;SDS011;7070;53.586;9.692;2022-08-07T14:13:40;0.20;;;0.20;;
13991;SDS011;7070;53.586;9.692;2022-08-07T14:16:08;0.20;;;0.20;;
13991;SDS011;7070;53.586;9.692;2022-08-07T14:18:44;0.28;;;0.28;;
13991;SDS011;7070;53.586;9.692;2022-08-07T14:21:14;0.20;;;0.20;;
13991;SDS011;7070;53.586;9.692;2022-08-07T14:23:47;0.20;;;0.20;;
13991;SDS011;7070;53.586;9.692;2022-08-07T14:26:22;0.30;;;0.30;;
13991;SDS011;7070;53.586;9.692;2022-08-07T14:28:51;0.30;;;0.30;;
13991;SDS011;7070;53.586;9.692;2022-08-07T14:31:21;0.30;;;0.30;;
13991;SDS011;7070;53.586;9.692;2022-08-07T14:33:50;0.30;;;0.30;;
13991;SDS011;7070;53.586;9.692;2022-08-07T14:36:19;0.13;;;0.13;;
13991;SDS011;7070;53.586;9.692;2022-08-07T14:38:48;0.20;;;0.20;;
13991;SDS011;7070;53.586;9.692;2022-08-07T14:41:17;0.20;;;0.20;;
13991;SDS011;7070;53.586;9.692;2022-08-07T14:43:51;0.20;;;0.20;;
13991;SDS011;7070;53.586;9.692;2022-08-07T14:46:20;0.20;;;0.20;;
13991;SDS011;7070;53.586;9.692;2022-08-07T14:48:51;0.20;;;0.20;;
13991;SDS011;7070;53.586;9.692;2022-08-07T14:51:21;0.17;;;0.17;;
13991;SDS011;7070;53.586;9.692;2022-08-07T14:53:52;0.20;;;0.20;;
13991;SDS011;7070;53.586;9.692;2022-08-07T14:56:20;0.20;;;0.20;;
13991;SDS011;7070;53.586;9.692;2022-08-07T14:58:51;0.20;;;0.20;;
13991;SDS011;7070;53.586;9.692;2022-08-07T15:01:22;0.20;;;0.20;;
13991;SDS011;7070;53.586;9.692;2022-08-07T15:03:53;0.30;;;0.30;;
13991;SDS011;7070;53.586;9.692;2022-08-07T15:06:25;0.30;;;0.30;;
13991;SDS011;7070;53.586;9.692;2022-08-07T15:09:00;0.20;;;0.20;;
13991;SDS011;7070;53.586;9.692;2022-08-07T15:11:29;0.30;;;0.30;;
13991;SDS011;7070;53.586;9.692;2022-08-07T15:13:59;0.20;;;0.20;;
13991;SDS011;7070;53.586;9.692;2022-08-07T15:16:32;0.20;;;0.20;;
13991;SDS011;7070;53.586;9.692;2022-08-07T15:19:05;0.20;;;0.20;;
13991;SDS011;7070;53.586;9.692;2022-08-07T15:21:36;0.20;;;0.20;;
13991;SDS011;7070;53.586;9.692;2022-08-07T15:24:08;0.30;;;0.30;;
13991;SDS011;7070;53.586;9.692;2022-08-07T15:26:39;0.20;;;0.20;;
13991;SDS011;7070;53.586;9.692;2022-08-07T15:29:09;0.20;;;0.20;;
13991;SDS011;7070;53.586;9.692;2022-08-07T15:31:40;0.20;;;0.20;;